Time;durP1;ratioP1;P1;durP2;ratioP2;P2;SDS_P1;SDS_P2;PMS_P1;PMS_P2;Temp;Humidity;BMP_temperature;BMP_pressure;BME280_temperature;BME280_humidity;BME280_pressure;Samples;Min_cycle;Max_cycle;Signal;HPM_P1;HPM_P2
2021/12/11 00:04:41;;;;;;;11.35;5.03;;;12.30;52.20;;;;;;20849131;28;20159;-85
2021/12/11 00:15:18;;;;;;;13.00;6.35;;;12.30;52.20;;;;;;20830626;28;20029;-84
2021/12/11 00:25:19;;;;;;;12.45;5.38;;;12.30;52.20;;;;;;20823276;28;20107;-85
2021/12/11 00:35:20;;;;;;;9.87;5.40;;;12.30;52.20;;;;;;20829573;28;20041;-84
2021/12/11 00:45:24;;;;;;;11.65;4.70;;;12.30;52.20;;;;;;20828143;28;20646;-86
2021/12/11 00:55:28;;;;;;;11.70;5.18;;;12.20;52.20;;;;;;20827913;28;20045;-85
2021/12/11 01:05:35;;;;;;;10.20;5.18;;;12.20;52.20;;;;;;20843946;28;20045;-84
2021/12/11 01:15:56;;;;;;;9.13;5.30;;;12.20;52.20;;;;;;20827562;28;20086;-85
2021/12/11 01:25:58;;;;;;;11.23;6.30;;;12.20;52.20;;;;;;20826229;28;20051;-83
2021/12/11 01:35:58;;;;;;;10.30;5.22;;;12.20;52.20;;;;;;20839828;28;20033;-85
2021/12/11 01:46:00;;;;;;;10.18;5.82;;;12.20;52.30;;;;;;20840792;28;20491;-82
2021/12/11 01:56:07;;;;;;;9.98;5.32;;;12.20;52.30;;;;;;20807176;28;20029;-82
2021/12/11 02:06:10;;;;;;;14.03;6.50;;;12.20;52.30;;;;;;20822002;28;20451;-83
2021/12/11 02:16:38;;;;;;;9.10;5.53;;;12.20;52.40;;;;;;20828912;28;20390;-84
2021/12/11 02:26:40;;;;;;;10.88;5.25;;;12.10;52.30;;;;;;20836396;28;20116;-82
2021/12/11 02:36:47;;;;;;;11.38;6.43;;;12.10;52.30;;;;;;20837019;28;20065;-82
2021/12/11 02:46:57;;;;;;;9.93;5.47;;;12.10;52.30;;;;;;20819833;28;20042;-83
2021/12/11 02:57:03;;;;;;;9.93;5.53;;;12.20;52.40;;;;;;20833975;28;20387;-83
2021/12/11 03:07:09;;;;;;;12.87;6.07;;;12.00;52.30;;;;;;20834494;28;20034;-83
2021/12/11 03:17:10;;;;;;;13.00;6.00;;;12.00;52.30;;;;;;20834701;28;20045;-84
2021/12/11 03:27:11;;;;;;;11.30;6.22;;;12.00;52.40;;;;;;20798162;28;20137;-82
2021/12/11 03:37:12;;;;;;;11.30;5.95;;;12.00;52.40;;;;;;20816052;28;20485;-83
2021/12/11 03:47:21;;;;;;;8.18;4.70;;;12.00;52.40;;;;;;20830885;28;20042;-83
2021/12/11 03:57:25;;;;;;;10.48;5.47;;;12.00;52.40;;;;;;20831013;28;20041;-84
2021/12/11 04:07:34;;;;;;;14.32;6.35;;;11.90;52.40;;;;;;20830847;28;20482;-83
2021/12/11 04:17:36;;;;;;;9.27;5.28;;;12.00;52.50;;;;;;20815406;28;20087;-82
2021/12/11 04:27:36;;;;;;;13.57;6.80;;;11.90;52.50;;;;;;20812876;28;20049;-83
2021/12/11 04:37:37;;;;;;;11.02;6.03;;;11.90;52.50;;;;;;20915481;28;20276;-83
2021/12/11 04:47:45;;;;;;;10.73;5.90;;;11.90;52.50;;;;;;20911057;28;20048;-82
2021/12/11 04:58:13;;;;;;;13.00;6.13;;;11.90;52.60;;;;;;20895385;28;20041;-82
2021/12/11 05:18:34;;;;;;;10.30;5.53;;;12.10;52.20;;;;;;20910582;28;20313;-83
2021/12/11 05:28:37;;;;;;;9.93;6.03;;;13.20;50.30;;;;;;20923452;28;20037;-82
2021/12/11 05:38:39;;;;;;;8.60;5.30;;;14.20;48.30;;;;;;20924009;28;20032;-82
2021/12/11 05:48:44;;;;;;;11.13;5.55;;;15.10;46.20;;;;;;20923560;28;20082;-82
2021/12/11 05:59:03;;;;;;;10.95;5.60;;;15.80;44.60;;;;;;20906767;28;20112;-84
2021/12/11 06:09:06;;;;;;;11.52;6.35;;;16.10;43.70;;;;;;20922088;28;20037;-83
2021/12/11 06:19:09;;;;;;;9.18;4.88;;;16.20;43.20;;;;;;20921104;28;20488;-84
2021/12/11 06:29:11;;;;;;;9.18;5.57;;;16.30;42.90;;;;;;20920388;28;20033;-83
2021/12/11 06:39:15;;;;;;;8.50;4.72;;;15.80;43.50;;;;;;20903032;28;20024;-84
2021/12/11 06:49:16;;;;;;;7.97;5.35;;;14.80;44.90;;;;;;20884354;28;20540;-82
2021/12/11 06:59:18;;;;;;;10.98;6.10;;;14.00;46.40;;;;;;20883809;28;20032;-83
2021/12/11 07:09:19;;;;;;;8.60;4.80;;;13.40;47.60;;;;;;20915478;28;20037;-83
2021/12/11 07:19:20;;;;;;;7.68;4.40;;;12.90;48.70;;;;;;20899088;28;20051;-82
2021/12/11 07:29:22;;;;;;;9.95;5.00;;;12.60;49.50;;;;;;20916230;28;20037;-83
2021/12/11 07:39:22;;;;;;;9.35;5.20;;;12.50;50.10;;;;;;20914294;28;20048;-81
2021/12/11 07:49:24;;;;;;;6.97;4.63;;;12.40;50.40;;;;;;20912328;28;20033;-82
2021/12/11 07:59:24;;;;;;;7.30;4.20;;;12.30;50.60;;;;;;20894948;28;20115;-79
2021/12/11 08:09:25;;;;;;;6.57;4.05;;;12.30;50.90;;;;;;20877419;28;20044;-74
2021/12/11 08:19:28;;;;;;;8.52;4.38;;;12.30;51.10;;;;;;20857706;28;20042;-79
2021/12/11 08:29:29;;;;;;;9.65;4.60;;;12.20;51.10;;;;;;20809417;28;20042;-74
2021/12/11 08:39:29;;;;;;;6.80;4.20;;;12.20;51.40;;;;;;20833040;28;20056;-76
2021/12/11 08:49:31;;;;;;;7.13;3.70;;;12.10;51.50;;;;;;20920141;28;20833;-77
2021/12/11 08:59:32;;;;;;;10.40;5.10;;;12.10;51.70;;;;;;20904834;28;20294;-78
2021/12/11 09:09:58;;;;;;;8.90;5.03;;;12.00;51.80;;;;;;20920027;28;20094;-83
2021/12/11 09:20:23;;;;;;;11.65;4.90;;;11.90;52.00;;;;;;20898565;28;20037;-79
2021/12/11 09:30:24;;;;;;;9.38;5.60;;;11.90;52.10;;;;;;20812600;28;20037;-81
2021/12/11 09:40:36;;;;;;;8.82;5.28;;;11.90;52.10;;;;;;20884954;28;20037;-80
2021/12/11 09:50:49;;;;;;;9.45;5.43;;;11.90;52.10;;;;;;20912323;28;20044;-80
2021/12/11 10:00:56;;;;;;;10.68;5.63;;;11.80;52.10;;;;;;20850372;28;20033;-81
2021/12/11 10:11:10;;;;;;;9.18;5.55;;;11.80;52.20;;;;;;20912584;28;20399;-80
2021/12/11 10:21:13;;;;;;;8.40;5.53;;;11.80;52.30;;;;;;20910037;28;20037;-80
2021/12/11 10:31:36;;;;;;;15.77;5.65;;;11.80;52.30;;;;;;20893647;28;20471;-79
2021/12/11 10:41:36;;;;;;;13.60;4.97;;;11.80;52.40;;;;;;20874330;28;20087;-80
2021/12/11 10:51:43;;;;;;;12.32;6.65;;;11.80;52.60;;;;;;20871154;28;20045;-80
2021/12/11 11:01:54;;;;;;;10.73;6.20;;;11.70;52.40;;;;;;20826195;28;20037;-77
2021/12/11 11:11:57;;;;;;;11.05;6.18;;;11.80;52.30;;;;;;20810503;28;20038;-76
2021/12/11 11:22:00;;;;;;;10.77;6.32;;;12.40;50.90;;;;;;21241700;22;20517;-79
2021/12/11 11:32:03;;;;;;;12.73;5.88;;;13.50;48.80;;;;;;20876986;28;20587;-76
2021/12/11 11:42:13;;;;;;;11.35;5.50;;;14.30;47.00;;;;;;20833085;28;20084;-78
2021/12/11 11:52:16;;;;;;;9.82;5.50;;;15.20;45.30;;;;;;20824631;28;20437;-78
2021/12/11 12:02:18;;;;;;;6.75;3.85;;;15.90;43.80;;;;;;20871630;28;20052;-79
2021/12/11 12:12:22;;;;;;;6.63;4.03;;;16.20;42.80;;;;;;20869796;28;20047;-80
2021/12/11 12:22:22;;;;;;;7.72;4.70;;;16.40;42.30;;;;;;20880230;28;20036;-78
2021/12/11 12:32:27;;;;;;;7.63;4.68;;;16.50;41.90;;;;;;20871688;28;20029;-78
2021/12/11 12:42:37;;;;;;;7.20;3.97;;;16.50;41.70;;;;;;20885356;28;20090;-77
2021/12/11 12:52:42;;;;;;;6.82;4.20;;;15.80;42.80;;;;;;20911573;28;20032;-74
2021/12/11 13:02:43;;;;;;;6.40;3.92;;;14.90;44.20;;;;;;20916748;28;20448;-72
2021/12/11 13:12:46;;;;;;;7.82;3.92;;;14.30;45.60;;;;;;20891774;28;20152;-76
2021/12/11 13:22:47;;;;;;;7.47;4.22;;;13.70;46.70;;;;;;20895099;28;20070;-77
2021/12/11 13:32:48;;;;;;;5.53;3.72;;;13.40;47.70;;;;;;20898392;28;20112;-76
2021/12/11 13:42:48;;;;;;;6.20;3.50;;;13.20;48.40;;;;;;20847625;28;20511;-76
2021/12/11 13:52:49;;;;;;;10.93;4.30;;;13.10;48.90;;;;;;20878503;28;20029;-76
2021/12/11 14:02:50;;;;;;;11.10;3.83;;;13.10;49.80;;;;;;20862672;28;20037;-79
2021/12/11 14:12:54;;;;;;;9.45;4.57;;;13.10;49.40;;;;;;20814714;28;20052;-76
2021/12/11 14:22:55;;;;;;;8.68;4.20;;;13.10;49.60;;;;;;20830285;28;20133;-80
2021/12/11 14:32:56;;;;;;;15.15;4.13;;;13.10;49.60;;;;;;20817859;28;20487;-80
2021/12/11 14:42:57;;;;;;;4.82;3.05;;;13.10;49.80;;;;;;20830779;28;20427;-83
2021/12/11 14:52:59;;;;;;;7.63;3.70;;;13.10;50.10;;;;;;20796342;28;20112;-86
2021/12/11 15:03:00;;;;;;;7.63;4.07;;;13.10;50.60;;;;;;20827667;28;20499;-78
2021/12/11 15:13:01;;;;;;;7.35;3.83;;;13.10;51.00;;;;;;20809529;28;20029;-78
2021/12/11 15:23:01;;;;;;;7.38;3.60;;;13.00;51.30;;;;;;20792630;28;20041;-76
2021/12/11 15:33:02;;;;;;;6.38;4.13;;;12.90;51.70;;;;;;20823991;28;20033;-75
2021/12/11 15:43:06;;;;;;;9.20;3.95;;;12.80;52.00;;;;;;20793077;28;20088;-74
2021/12/11 15:53:07;;;;;;;6.53;3.38;;;13.30;51.40;;;;;;20791832;28;20095;-73
2021/12/11 16:03:08;;;;;;;9.23;4.32;;;14.00;49.90;;;;;;20822473;28;20128;-73
2021/12/11 16:13:10;;;;;;;7.50;4.30;;;14.50;48.50;;;;;;20842626;28;20124;-75
2021/12/11 16:23:14;;;;;;;7.72;4.00;;;15.10;47.10;;;;;;20887461;28;20506;-77
2021/12/11 16:33:14;;;;;;;7.47;4.13;;;15.50;46.10;;;;;;20886571;28;20029;-77
2021/12/11 16:43:20;;;;;;;7.13;4.40;;;15.90;45.20;;;;;;20862011;28;20045;-78
2021/12/11 16:53:24;;;;;;;7.75;4.35;;;16.10;44.40;;;;;;20842237;28;20091;-77
2021/12/11 17:03:25;;;;;;;6.22;4.05;;;16.20;44.00;;;;;;20886225;28;20072;-81
2021/12/11 17:13:29;;;;;;;9.38;5.03;;;16.20;43.80;;;;;;20854711;28;20064;-78
2021/12/11 17:23:30;;;;;;;7.93;3.97;;;15.70;44.30;;;;;;20888016;28;20470;-80
2021/12/11 17:33:31;;;;;;;9.05;5.20;;;14.90;45.50;;;;;;20898405;28;20057;-75
2021/12/11 17:43:32;;;;;;;8.02;4.55;;;14.30;46.90;;;;;;20889551;28;20060;-81
2021/12/11 17:53:33;;;;;;;6.85;4.10;;;13.60;47.90;;;;;;20915174;28;20028;-79
2021/12/11 18:03:36;;;;;;;8.18;4.07;;;13.20;48.90;;;;;;20885889;28;20044;-78
2021/12/11 18:13:49;;;;;;;10.05;4.68;;;12.90;49.70;;;;;;20899637;28;20171;-79
2021/12/11 18:23:50;;;;;;;8.98;4.65;;;12.70;50.20;;;;;;20893438;28;20060;-79
2021/12/11 18:33:50;;;;;;;7.17;4.17;;;12.60;50.50;;;;;;20882676;28;20059;-79
2021/12/11 18:43:51;;;;;;;6.55;4.15;;;12.50;50.60;;;;;;20896156;28;20318;-79
2021/12/11 18:53:55;;;;;;;6.53;4.20;;;12.60;50.70;;;;;;20873189;28;20056;-79
2021/12/11 19:04:02;;;;;;;8.38;4.70;;;12.50;50.60;;;;;;20888760;28;20443;-80
2021/12/11 19:14:04;;;;;;;10.65;5.38;;;12.60;50.60;;;;;;20895967;28;20029;-79
2021/12/11 19:24:05;;;;;;;7.80;4.80;;;12.70;50.60;;;;;;20904278;28;20040;-78
2021/12/11 19:34:06;;;;;;;6.82;4.38;;;12.60;50.50;;;;;;20874922;28;20036;-80
2021/12/11 19:44:07;;;;;;;17.30;5.43;;;12.60;50.50;;;;;;20894118;28;20505;-78
2021/12/11 19:54:10;;;;;;;10.65;5.82;;;12.60;50.50;;;;;;20884573;28;20303;-80
2021/12/11 20:04:12;;;;;;;7.45;4.85;;;12.60;50.50;;;;;;20899679;28;20044;-80
2021/12/11 20:14:14;;;;;;;11.93;6.22;;;12.60;50.50;;;;;;20872400;28;20394;-80
2021/12/11 20:24:15;;;;;;;8.32;4.65;;;12.60;50.70;;;;;;20882541;28;20140;-80
2021/12/11 20:34:15;;;;;;;12.38;5.88;;;12.50;50.40;;;;;;20897803;28;20116;-80
2021/12/11 20:44:24;;;;;;;8.88;5.35;;;12.50;50.50;;;;;;20905224;28;20071;-80
2021/12/11 20:54:28;;;;;;;8.65;4.95;;;12.50;50.40;;;;;;20879179;28;20072;-80
2021/12/11 21:04:52;;;;;;;8.55;4.97;;;12.50;50.50;;;;;;20833004;28;20125;-80
2021/12/11 21:14:55;;;;;;;10.63;6.18;;;12.50;50.50;;;;;;20832319;28;20650;-80
2021/12/11 21:24:58;;;;;;;8.82;5.53;;;12.50;50.50;;;;;;20814980;28;20041;-80
2021/12/11 21:35:04;;;;;;;10.65;5.72;;;12.50;50.50;;;;;;20830953;28;20080;-80
2021/12/11 21:45:07;;;;;;;10.57;5.30;;;12.40;50.50;;;;;;20799388;28;20041;-80
2021/12/11 21:55:19;;;;;;;9.93;5.07;;;12.40;50.60;;;;;;20923356;28;20108;-79
2021/12/11 22:05:43;;;;;;;13.88;5.97;;;12.30;50.60;;;;;;20879779;28;20655;-80
2021/12/11 22:15:50;;;;;;;10.07;4.50;;;12.40;50.70;;;;;;20879198;28;20170;-79
2021/12/11 22:26:03;;;;;;;10.38;4.95;;;12.30;50.60;;;;;;20878394;28;20041;-80
2021/12/11 22:36:04;;;;;;;8.02;4.72;;;12.30;50.70;;;;;;20910814;28;20403;-80
2021/12/11 22:46:05;;;;;;;7.70;4.82;;;12.30;50.70;;;;;;20868079;28;20044;-80
2021/12/11 22:56:06;;;;;;;9.88;4.93;;;12.30;50.80;;;;;;20888715;28;20116;-79
2021/12/11 23:06:08;;;;;;;7.35;4.50;;;12.30;50.70;;;;;;20891405;28;20410;-80
2021/12/11 23:16:21;;;;;;;6.90;4.75;;;12.20;50.70;;;;;;20892136;28;20469;-80
2021/12/11 23:26:42;;;;;;;9.57;4.55;;;12.20;50.80;;;;;;20906682;28;20037;-79
2021/12/11 23:36:50;;;;;;;9.50;5.10;;;12.20;50.80;;;;;;20889173;28;20049;-80
2021/12/11 23:46:55;;;;;;;5.60;4.20;;;12.20;50.90;;;;;;20905436;28;20056;-79
2021/12/11 23:57:07;;;;;;;9.93;4.43;;;12.20;50.90;;;;;;20888200;28;20476;-79
